sensor_id;sensor_type;location;lat;lon;timestamp;P1;durP1;ratioP1;P2;durP2;ratioP2
21987;SDS011;11158;53.404;-1.510;2023-01-09T00:01:40;12.48;;;3.55;;
21987;SDS011;11158;53.404;-1.510;2023-01-09T00:04:08;11.52;;;3.20;;
21987;SDS011;11158;53.404;-1.510;2023-01-09T00:06:34;9.98;;;2.70;;
21987;SDS011;11158;53.404;-1.510;2023-01-09T00:09:01;8.40;;;2.80;;
21987;SDS011;11158;53.404;-1.510;2023-01-09T00:11:28;11.45;;;3.42;;
21987;SDS011;11158;53.404;-1.510;2023-01-09T00:13:54;12.77;;;3.03;;
21987;SDS011;11158;53.404;-1.510;2023-01-09T00:16:20;8.32;;;2.88;;
21987;SDS011;11158;53.404;-1.510;2023-01-09T00:18:46;6.47;;;2.50;;
21987;SDS011;11158;53.404;-1.510;2023-01-09T00:21:12;7.20;;;2.15;;
21987;SDS011;11158;53.404;-1.510;2023-01-09T00:23:38;12.82;;;2.70;;
21987;SDS011;11158;53.404;-1.510;2023-01-09T00:26:19;5.57;;;2.08;;
21987;SDS011;11158;53.404;-1.510;2023-01-09T00:28:46;5.28;;;2.00;;
21987;SDS011;11158;53.404;-1.510;2023-01-09T00:31:14;8.13;;;2.28;;
21987;SDS011;11158;53.404;-1.510;2023-01-09T00:33:42;4.28;;;1.65;;
21987;SDS011;11158;53.404;-1.510;2023-01-09T00:36:23;5.00;;;1.73;;
21987;SDS011;11158;53.404;-1.510;2023-01-09T00:38:48;6.65;;;2.38;;
21987;SDS011;11158;53.404;-1.510;2023-01-09T00:41:16;7.78;;;1.98;;
21987;SDS011;11158;53.404;-1.510;2023-01-09T00:43:46;6.55;;;2.30;;
21987;SDS011;11158;53.404;-1.510;2023-01-09T00:46:16;10.02;;;2.30;;
21987;SDS011;11158;53.404;-1.510;2023-01-09T00:48:46;8.40;;;2.15;;
21987;SDS011;11158;53.404;-1.510;2023-01-09T00:51:13;5.65;;;2.30;;
21987;SDS011;11158;53.404;-1.510;2023-01-09T00:53:41;5.05;;;2.03;;
21987;SDS011;11158;53.404;-1.510;2023-01-09T00:56:08;8.32;;;2.08;;
21987;SDS011;11158;53.404;-1.510;2023-01-09T00:58:38;4.43;;;2.10;;
21987;SDS011;11158;53.404;-1.510;2023-01-09T01:01:04;11.52;;;2.42;;
21987;SDS011;11158;53.404;-1.510;2023-01-09T01:03:30;5.80;;;1.80;;
21987;SDS011;11158;53.404;-1.510;2023-01-09T01:05:56;11.15;;;2.15;;
21987;SDS011;11158;53.404;-1.510;2023-01-09T01:08:40;9.73;;;2.10;;
21987;SDS011;11158;53.404;-1.510;2023-01-09T01:11:07;4.10;;;1.77;;
21987;SDS011;11158;53.404;-1.510;2023-01-09T01:13:35;6.22;;;2.08;;
21987;SDS011;11158;53.404;-1.510;2023-01-09T01:16:04;7.53;;;1.98;;
21987;SDS011;11158;53.404;-1.510;2023-01-09T01:18:34;5.55;;;1.65;;
21987;SDS011;11158;53.404;-1.510;2023-01-09T01:21:04;7.10;;;2.20;;
21987;SDS011;11158;53.404;-1.510;2023-01-09T01:23:32;3.97;;;1.58;;
21987;SDS011;11158;53.404;-1.510;2023-01-09T01:26:02;9.85;;;1.95;;
21987;SDS011;11158;53.404;-1.510;2023-01-09T01:28:31;9.93;;;2.05;;
21987;SDS011;11158;53.404;-1.510;2023-01-09T01:30:57;5.55;;;1.63;;
21987;SDS011;11158;53.404;-1.510;2023-01-09T01:33:23;9.35;;;1.80;;
21987;SDS011;11158;53.404;-1.510;2023-01-09T01:35:49;5.68;;;1.63;;
21987;SDS011;11158;53.404;-1.510;2023-01-09T01:38:14;7.55;;;2.00;;
21987;SDS011;11158;53.404;-1.510;2023-01-09T01:40:41;8.93;;;1.90;;
21987;SDS011;11158;53.404;-1.510;2023-01-09T01:43:07;6.47;;;1.80;;
21987;SDS011;11158;53.404;-1.510;2023-01-09T01:45:36;8.02;;;1.83;;
21987;SDS011;11158;53.404;-1.510;2023-01-09T01:48:08;9.23;;;2.05;;
21987;SDS011;11158;53.404;-1.510;2023-01-09T01:58:57;12.10;;;2.72;;
21987;SDS011;11158;53.404;-1.510;2023-01-09T02:01:27;8.52;;;2.10;;
21987;SDS011;11158;53.404;-1.510;2023-01-09T02:03:54;7.50;;;1.90;;
21987;SDS011;11158;53.404;-1.510;2023-01-09T02:06:22;6.93;;;1.80;;
21987;SDS011;11158;53.404;-1.510;2023-01-09T02:08:49;8.98;;;2.00;;
21987;SDS011;11158;53.404;-1.510;2023-01-09T02:11:16;4.47;;;1.83;;
21987;SDS011;11158;53.404;-1.510;2023-01-09T02:13:44;10.15;;;1.80;;
21987;SDS011;11158;53.404;-1.510;2023-01-09T02:21:43;7.78;;;2.15;;
21987;SDS011;11158;53.404;-1.510;2023-01-09T02:27:21;9.63;;;1.95;;
21987;SDS011;11158;53.404;-1.510;2023-01-09T02:35:01;6.93;;;1.80;;
21987;SDS011;11158;53.404;-1.510;2023-01-09T02:42:33;9.95;;;2.28;;
21987;SDS011;11158;53.404;-1.510;2023-01-09T02:45:00;6.38;;;1.90;;
21987;SDS011;11158;53.404;-1.510;2023-01-09T02:50:22;6.65;;;1.98;;
21987;SDS011;11158;53.404;-1.510;2023-01-09T02:58:42;6.57;;;1.60;;
21987;SDS011;11158;53.404;-1.510;2023-01-09T03:09:16;8.18;;;2.13;;
21987;SDS011;11158;53.404;-1.510;2023-01-09T03:12:06;7.78;;;2.03;;
21987;SDS011;11158;53.404;-1.510;2023-01-09T03:14:37;11.82;;;2.47;;
21987;SDS011;11158;53.404;-1.510;2023-01-09T03:17:09;9.23;;;2.45;;
21987;SDS011;11158;53.404;-1.510;2023-01-09T03:19:38;9.15;;;2.17;;
21987;SDS011;11158;53.404;-1.510;2023-01-09T03:22:07;8.68;;;2.08;;
21987;SDS011;11158;53.404;-1.510;2023-01-09T03:24:33;10.60;;;2.35;;
21987;SDS011;11158;53.404;-1.510;2023-01-09T03:26:59;12.15;;;2.15;;
21987;SDS011;11158;53.404;-1.510;2023-01-09T03:29:25;9.88;;;2.28;;
21987;SDS011;11158;53.404;-1.510;2023-01-09T03:31:51;8.00;;;1.98;;
21987;SDS011;11158;53.404;-1.510;2023-01-09T03:34:17;10.32;;;2.13;;
21987;SDS011;11158;53.404;-1.510;2023-01-09T03:36:43;9.77;;;2.45;;
21987;SDS011;11158;53.404;-1.510;2023-01-09T03:39:09;6.93;;;2.10;;
21987;SDS011;11158;53.404;-1.510;2023-01-09T03:41:35;11.35;;;2.90;;
21987;SDS011;11158;53.404;-1.510;2023-01-09T03:44:02;10.07;;;2.25;;
21987;SDS011;11158;53.404;-1.510;2023-01-09T03:46:28;12.38;;;2.60;;
21987;SDS011;11158;53.404;-1.510;2023-01-09T03:48:53;9.40;;;2.35;;
21987;SDS011;11158;53.404;-1.510;2023-01-09T03:51:20;7.43;;;1.92;;
21987;SDS011;11158;53.404;-1.510;2023-01-09T03:53:45;10.43;;;2.00;;
21987;SDS011;11158;53.404;-1.510;2023-01-09T03:56:11;10.00;;;2.30;;
21987;SDS011;11158;53.404;-1.510;2023-01-09T03:58:37;11.00;;;2.22;;
21987;SDS011;11158;53.404;-1.510;2023-01-09T04:01:03;10.60;;;2.42;;
21987;SDS011;11158;53.404;-1.510;2023-01-09T04:03:30;10.27;;;2.30;;
21987;SDS011;11158;53.404;-1.510;2023-01-09T04:05:56;16.83;;;2.75;;
21987;SDS011;11158;53.404;-1.510;2023-01-09T04:08:21;13.13;;;2.60;;
21987;SDS011;11158;53.404;-1.510;2023-01-09T04:10:48;9.35;;;2.40;;
21987;SDS011;11158;53.404;-1.510;2023-01-09T04:13:15;10.63;;;2.05;;
21987;SDS011;11158;53.404;-1.510;2023-01-09T04:15:41;10.57;;;2.22;;
21987;SDS011;11158;53.404;-1.510;2023-01-09T04:18:07;10.20;;;2.70;;
21987;SDS011;11158;53.404;-1.510;2023-01-09T04:20:33;8.07;;;2.28;;
21987;SDS011;11158;53.404;-1.510;2023-01-09T04:22:59;14.20;;;2.75;;
21987;SDS011;11158;53.404;-1.510;2023-01-09T04:25:32;6.75;;;2.92;;
21987;SDS011;11158;53.404;-1.510;2023-01-09T04:27:58;12.85;;;3.45;;
21987;SDS011;11158;53.404;-1.510;2023-01-09T04:30:24;9.65;;;3.35;;
21987;SDS011;11158;53.404;-1.510;2023-01-09T04:32:50;13.10;;;2.90;;
21987;SDS011;11158;53.404;-1.510;2023-01-09T04:35:18;7.90;;;2.60;;
21987;SDS011;11158;53.404;-1.510;2023-01-09T04:37:44;11.48;;;2.78;;
21987;SDS011;11158;53.404;-1.510;2023-01-09T04:40:16;9.02;;;2.03;;
21987;SDS011;11158;53.404;-1.510;2023-01-09T04:42:44;6.35;;;2.15;;
21987;SDS011;11158;53.404;-1.510;2023-01-09T04:45:10;13.07;;;2.45;;
21987;SDS011;11158;53.404;-1.510;2023-01-09T04:47:36;13.60;;;1.80;;
21987;SDS011;11158;53.404;-1.510;2023-01-09T04:50:12;9.02;;;2.00;;
21987;SDS011;11158;53.404;-1.510;2023-01-09T04:52:38;8.60;;;1.63;;
21987;SDS011;11158;53.404;-1.510;2023-01-09T04:55:05;4.40;;;1.60;;
21987;SDS011;11158;53.404;-1.510;2023-01-09T04:57:33;7.70;;;1.88;;
21987;SDS011;11158;53.404;-1.510;2023-01-09T05:00:01;10.23;;;1.98;;
21987;SDS011;11158;53.404;-1.510;2023-01-09T05:02:32;7.93;;;1.77;;
21987;SDS011;11158;53.404;-1.510;2023-01-09T05:04:57;6.20;;;1.52;;
21987;SDS011;11158;53.404;-1.510;2023-01-09T05:07:23;6.95;;;1.52;;
21987;SDS011;11158;53.404;-1.510;2023-01-09T05:09:49;8.70;;;2.10;;
21987;SDS011;11158;53.404;-1.510;2023-01-09T05:12:15;5.45;;;2.08;;
21987;SDS011;11158;53.404;-1.510;2023-01-09T05:14:41;3.85;;;1.52;;
21987;SDS011;11158;53.404;-1.510;2023-01-09T05:17:07;9.05;;;2.00;;
21987;SDS011;11158;53.404;-1.510;2023-01-09T05:19:33;12.23;;;2.67;;
21987;SDS011;11158;53.404;-1.510;2023-01-09T05:21:59;6.65;;;1.80;;
21987;SDS011;11158;53.404;-1.510;2023-01-09T05:24:25;12.30;;;1.95;;
21987;SDS011;11158;53.404;-1.510;2023-01-09T05:26:53;7.85;;;1.67;;
21987;SDS011;11158;53.404;-1.510;2023-01-09T05:29:19;7.40;;;1.70;;
21987;SDS011;11158;53.404;-1.510;2023-01-09T05:31:46;8.63;;;2.05;;
21987;SDS011;11158;53.404;-1.510;2023-01-09T05:34:13;7.63;;;1.60;;
21987;SDS011;11158;53.404;-1.510;2023-01-09T05:36:38;3.35;;;1.52;;
21987;SDS011;11158;53.404;-1.510;2023-01-09T05:39:05;8.73;;;1.98;;
21987;SDS011;11158;53.404;-1.510;2023-01-09T05:41:30;8.57;;;1.60;;
21987;SDS011;11158;53.404;-1.510;2023-01-09T05:43:56;8.15;;;2.30;;
21987;SDS011;11158;53.404;-1.510;2023-01-09T05:46:22;9.02;;;2.00;;
21987;SDS011;11158;53.404;-1.510;2023-01-09T05:48:48;9.93;;;2.00;;
21987;SDS011;11158;53.404;-1.510;2023-01-09T05:51:13;6.50;;;1.98;;
21987;SDS011;11158;53.404;-1.510;2023-01-09T05:53:39;7.28;;;1.70;;
21987;SDS011;11158;53.404;-1.510;2023-01-09T05:56:05;10.88;;;1.92;;
21987;SDS011;11158;53.404;-1.510;2023-01-09T05:58:31;8.77;;;1.95;;
21987;SDS011;11158;53.404;-1.510;2023-01-09T06:00:57;7.57;;;2.17;;
21987;SDS011;11158;53.404;-1.510;2023-01-09T06:03:23;5.40;;;1.48;;
21987;SDS011;11158;53.404;-1.510;2023-01-09T06:05:50;9.90;;;2.15;;
21987;SDS011;11158;53.404;-1.510;2023-01-09T06:08:16;6.50;;;1.80;;
21987;SDS011;11158;53.404;-1.510;2023-01-09T06:10:42;12.52;;;1.90;;
21987;SDS011;11158;53.404;-1.510;2023-01-09T06:13:08;10.80;;;1.88;;
21987;SDS011;11158;53.404;-1.510;2023-01-09T06:15:33;6.32;;;1.75;;
21987;SDS011;11158;53.404;-1.510;2023-01-09T06:17:59;4.50;;;1.70;;
21987;SDS011;11158;53.404;-1.510;2023-01-09T06:20:25;9.63;;;1.83;;
21987;SDS011;11158;53.404;-1.510;2023-01-09T06:22:50;14.50;;;2.10;;
21987;SDS011;11158;53.404;-1.510;2023-01-09T06:25:17;7.65;;;2.00;;
21987;SDS011;11158;53.404;-1.510;2023-01-09T06:27:43;9.85;;;1.80;;
21987;SDS011;11158;53.404;-1.510;2023-01-09T06:30:09;8.57;;;1.92;;
21987;SDS011;11158;53.404;-1.510;2023-01-09T06:32:36;8.80;;;2.10;;
21987;SDS011;11158;53.404;-1.510;2023-01-09T06:35:02;7.43;;;1.90;;
21987;SDS011;11158;53.404;-1.510;2023-01-09T06:37:28;15.15;;;2.25;;
21987;SDS011;11158;53.404;-1.510;2023-01-09T06:39:53;8.23;;;2.03;;
21987;SDS011;11158;53.404;-1.510;2023-01-09T06:42:19;8.98;;;2.72;;
21987;SDS011;11158;53.404;-1.510;2023-01-09T06:44:48;7.53;;;1.77;;
21987;SDS011;11158;53.404;-1.510;2023-01-09T06:47:14;7.20;;;1.90;;
21987;SDS011;11158;53.404;-1.510;2023-01-09T06:49:40;8.02;;;2.00;;
21987;SDS011;11158;53.404;-1.510;2023-01-09T06:52:06;4.50;;;1.60;;
21987;SDS011;11158;53.404;-1.510;2023-01-09T06:54:33;11.48;;;2.10;;
21987;SDS011;11158;53.404;-1.510;2023-01-09T06:56:59;4.32;;;1.70;;
21987;SDS011;11158;53.404;-1.510;2023-01-09T06:59:25;6.78;;;1.60;;
21987;SDS011;11158;53.404;-1.510;2023-01-09T07:01:51;5.22;;;1.80;;
21987;SDS011;11158;53.404;-1.510;2023-01-09T07:04:17;5.63;;;1.55;;
21987;SDS011;11158;53.404;-1.510;2023-01-09T07:06:46;4.18;;;1.33;;
21987;SDS011;11158;53.404;-1.510;2023-01-09T07:09:12;4.10;;;1.52;;
21987;SDS011;11158;53.404;-1.510;2023-01-09T07:11:39;6.25;;;1.65;;
21987;SDS011;11158;53.404;-1.510;2023-01-09T07:14:05;3.55;;;1.50;;
21987;SDS011;11158;53.404;-1.510;2023-01-09T07:16:31;3.00;;;1.30;;
21987;SDS011;11158;53.404;-1.510;2023-01-09T07:18:57;4.22;;;1.23;;
21987;SDS011;11158;53.404;-1.510;2023-01-09T07:21:24;1.80;;;1.00;;
21987;SDS011;11158;53.404;-1.510;2023-01-09T07:23:50;2.50;;;1.02;;
21987;SDS011;11158;53.404;-1.510;2023-01-09T07:26:16;2.05;;;1.00;;
21987;SDS011;11158;53.404;-1.510;2023-01-09T07:28:42;1.42;;;1.10;;
21987;SDS011;11158;53.404;-1.510;2023-01-09T07:31:07;1.95;;;1.00;;
21987;SDS011;11158;53.404;-1.510;2023-01-09T07:33:33;1.20;;;1.10;;
21987;SDS011;11158;53.404;-1.510;2023-01-09T07:35:59;1.67;;;1.00;;
21987;SDS011;11158;53.404;-1.510;2023-01-09T07:38:25;2.17;;;1.20;;
21987;SDS011;11158;53.404;-1.510;2023-01-09T07:40:51;3.33;;;1.20;;
21987;SDS011;11158;53.404;-1.510;2023-01-09T07:43:17;2.47;;;1.00;;
21987;SDS011;11158;53.404;-1.510;2023-01-09T07:45:44;3.50;;;1.23;;
21987;SDS011;11158;53.404;-1.510;2023-01-09T07:48:10;2.78;;;1.10;;
21987;SDS011;11158;53.404;-1.510;2023-01-09T07:50:36;2.60;;;1.30;;
21987;SDS011;11158;53.404;-1.510;2023-01-09T07:53:02;3.13;;;1.60;;
21987;SDS011;11158;53.404;-1.510;2023-01-09T07:55:28;2.25;;;1.50;;
21987;SDS011;11158;53.404;-1.510;2023-01-09T07:57:53;2.05;;;1.27;;
21987;SDS011;11158;53.404;-1.510;2023-01-09T08:00:19;1.98;;;1.58;;
21987;SDS011;11158;53.404;-1.510;2023-01-09T08:02:49;1.30;;;1.20;;
21987;SDS011;11158;53.404;-1.510;2023-01-09T08:05:18;2.22;;;1.30;;
21987;SDS011;11158;53.404;-1.510;2023-01-09T08:07:45;4.93;;;2.00;;
21987;SDS011;11158;53.404;-1.510;2023-01-09T08:10:11;1.45;;;1.35;;
21987;SDS011;11158;53.404;-1.510;2023-01-09T08:12:41;2.80;;;1.10;;
21987;SDS011;11158;53.404;-1.510;2023-01-09T08:15:10;3.35;;;1.60;;
21987;SDS011;11158;53.404;-1.510;2023-01-09T08:17:38;2.10;;;1.00;;
21987;SDS011;11158;53.404;-1.510;2023-01-09T08:20:06;1.92;;;1.13;;
21987;SDS011;11158;53.404;-1.510;2023-01-09T08:22:33;1.75;;;1.20;;
21987;SDS011;11158;53.404;-1.510;2023-01-09T08:24:58;4.00;;;1.20;;
21987;SDS011;11158;53.404;-1.510;2023-01-09T08:27:24;1.58;;;0.90;;
21987;SDS011;11158;53.404;-1.510;2023-01-09T08:29:50;1.75;;;1.00;;
21987;SDS011;11158;53.404;-1.510;2023-01-09T08:32:16;2.95;;;1.20;;
21987;SDS011;11158;53.404;-1.510;2023-01-09T08:34:41;2.97;;;0.93;;
21987;SDS011;11158;53.404;-1.510;2023-01-09T08:37:08;1.40;;;0.73;;
21987;SDS011;11158;53.404;-1.510;2023-01-09T08:39:33;0.55;;;0.55;;
21987;SDS011;11158;53.404;-1.510;2023-01-09T08:42:01;1.88;;;0.70;;
21987;SDS011;11158;53.404;-1.510;2023-01-09T08:44:45;2.47;;;0.90;;
21987;SDS011;11158;53.404;-1.510;2023-01-09T08:47:29;1.30;;;0.68;;
21987;SDS011;11158;53.404;-1.510;2023-01-09T08:49:58;3.35;;;1.08;;
21987;SDS011;11158;53.404;-1.510;2023-01-09T08:52:25;2.47;;;0.90;;
21987;SDS011;11158;53.404;-1.510;2023-01-09T08:54:51;2.05;;;0.70;;
21987;SDS011;11158;53.404;-1.510;2023-01-09T08:57:18;1.55;;;0.55;;
21987;SDS011;11158;53.404;-1.510;2023-01-09T08:59:43;0.80;;;0.50;;
21987;SDS011;11158;53.404;-1.510;2023-01-09T09:02:10;2.10;;;0.50;;
21987;SDS011;11158;53.404;-1.510;2023-01-09T09:04:36;2.80;;;0.60;;
21987;SDS011;11158;53.404;-1.510;2023-01-09T09:07:01;0.98;;;0.60;;
21987;SDS011;11158;53.404;-1.510;2023-01-09T09:09:31;1.67;;;0.65;;
21987;SDS011;11158;53.404;-1.510;2023-01-09T09:11:57;3.30;;;1.05;;
21987;SDS011;11158;53.404;-1.510;2023-01-09T09:14:23;0.60;;;0.60;;
21987;SDS011;11158;53.404;-1.510;2023-01-09T09:17:07;0.52;;;0.30;;
21987;SDS011;11158;53.404;-1.510;2023-01-09T09:19:33;1.17;;;0.50;;
21987;SDS011;11158;53.404;-1.510;2023-01-09T09:21:59;0.32;;;0.32;;
21987;SDS011;11158;53.404;-1.510;2023-01-09T09:24:25;0.52;;;0.40;;
21987;SDS011;11158;53.404;-1.510;2023-01-09T09:26:50;0.73;;;0.60;;
21987;SDS011;11158;53.404;-1.510;2023-01-09T09:29:16;0.80;;;0.60;;
21987;SDS011;11158;53.404;-1.510;2023-01-09T09:31:42;1.23;;;1.23;;
21987;SDS011;11158;53.404;-1.510;2023-01-09T09:34:08;0.50;;;0.50;;
21987;SDS011;11158;53.404;-1.510;2023-01-09T09:36:34;1.92;;;0.73;;
21987;SDS011;11158;53.404;-1.510;2023-01-09T09:39:00;0.73;;;0.70;;
21987;SDS011;11158;53.404;-1.510;2023-01-09T09:52:58;3.03;;;1.15;;
21987;SDS011;11158;53.404;-1.510;2023-01-09T09:55:32;3.95;;;1.65;;
21987;SDS011;11158;53.404;-1.510;2023-01-09T09:58:01;6.88;;;1.75;;
21987;SDS011;11158;53.404;-1.510;2023-01-09T10:03:02;5.65;;;1.30;;
21987;SDS011;11158;53.404;-1.510;2023-01-09T10:05:35;7.13;;;1.55;;
21987;SDS011;11158;53.404;-1.510;2023-01-09T10:08:18;11.00;;;1.58;;
21987;SDS011;11158;53.404;-1.510;2023-01-09T10:11:01;6.95;;;2.00;;
21987;SDS011;11158;53.404;-1.510;2023-01-09T10:13:29;7.32;;;1.77;;
21987;SDS011;11158;53.404;-1.510;2023-01-09T10:16:23;10.02;;;2.15;;
21987;SDS011;11158;53.404;-1.510;2023-01-09T10:19:06;5.72;;;1.48;;
21987;SDS011;11158;53.404;-1.510;2023-01-09T10:21:51;4.40;;;1.15;;
21987;SDS011;11158;53.404;-1.510;2023-01-09T10:24:33;3.92;;;1.90;;
21987;SDS011;11158;53.404;-1.510;2023-01-09T10:27:55;1.90;;;0.90;;
21987;SDS011;11158;53.404;-1.510;2023-01-09T10:38:44;3.65;;;0.88;;
21987;SDS011;11158;53.404;-1.510;2023-01-09T10:41:20;3.28;;;0.85;;
21987;SDS011;11158;53.404;-1.510;2023-01-09T10:43:55;3.42;;;0.90;;
21987;SDS011;11158;53.404;-1.510;2023-01-09T10:46:34;4.07;;;1.50;;
21987;SDS011;11158;53.404;-1.510;2023-01-09T10:49:11;4.18;;;0.90;;
21987;SDS011;11158;53.404;-1.510;2023-01-09T10:51:43;9.60;;;1.42;;
21987;SDS011;11158;53.404;-1.510;2023-01-09T10:54:14;9.00;;;2.30;;
21987;SDS011;11158;53.404;-1.510;2023-01-09T10:57:17;14.98;;;2.35;;
21987;SDS011;11158;53.404;-1.510;2023-01-09T10:59:38;14.57;;;3.00;;
21987;SDS011;11158;53.404;-1.510;2023-01-09T11:02:10;17.50;;;2.70;;
21987;SDS011;11158;53.404;-1.510;2023-01-09T11:04:57;13.13;;;2.90;;
21987;SDS011;11158;53.404;-1.510;2023-01-09T11:07:25;14.25;;;2.85;;
21987;SDS011;11158;53.404;-1.510;2023-01-09T11:09:55;12.67;;;3.43;;
21987;SDS011;11158;53.404;-1.510;2023-01-09T11:12:28;12.77;;;2.95;;
21987;SDS011;11158;53.404;-1.510;2023-01-09T11:15:16;9.57;;;2.65;;
21987;SDS011;11158;53.404;-1.510;2023-01-09T11:17:45;17.98;;;3.78;;
21987;SDS011;11158;53.404;-1.510;2023-01-09T11:22:48;15.10;;;2.83;;
21987;SDS011;11158;53.404;-1.510;2023-01-09T11:25:17;7.90;;;1.63;;
21987;SDS011;11158;53.404;-1.510;2023-01-09T11:30:26;12.93;;;2.25;;
21987;SDS011;11158;53.404;-1.510;2023-01-09T11:32:53;6.75;;;2.50;;
21987;SDS011;11158;53.404;-1.510;2023-01-09T11:35:26;10.02;;;1.98;;
21987;SDS011;11158;53.404;-1.510;2023-01-09T11:37:57;11.60;;;2.53;;
21987;SDS011;11158;53.404;-1.510;2023-01-09T11:43:18;13.18;;;2.45;;
21987;SDS011;11158;53.404;-1.510;2023-01-09T11:46:01;13.00;;;2.33;;
21987;SDS011;11158;53.404;-1.510;2023-01-09T11:51:04;7.03;;;1.58;;
21987;SDS011;11158;53.404;-1.510;2023-01-09T11:53:42;8.15;;;2.22;;
21987;SDS011;11158;53.404;-1.510;2023-01-09T11:56:15;12.50;;;2.60;;
21987;SDS011;11158;53.404;-1.510;2023-01-09T11:58:42;10.32;;;2.13;;
21987;SDS011;11158;53.404;-1.510;2023-01-09T12:08:55;11.00;;;2.17;;
21987;SDS011;11158;53.404;-1.510;2023-01-09T12:11:27;5.63;;;1.63;;
21987;SDS011;11158;53.404;-1.510;2023-01-09T12:14:04;6.95;;;1.73;;
21987;SDS011;11158;53.404;-1.510;2023-01-09T12:25:01;10.85;;;1.70;;
21987;SDS011;11158;53.404;-1.510;2023-01-09T12:27:53;4.93;;;2.00;;
21987;SDS011;11158;53.404;-1.510;2023-01-09T12:30:51;7.25;;;1.80;;
21987;SDS011;11158;53.404;-1.510;2023-01-09T12:33:50;5.32;;;1.52;;
21987;SDS011;11158;53.404;-1.510;2023-01-09T12:45:18;8.57;;;2.30;;
21987;SDS011;11158;53.404;-1.510;2023-01-09T12:47:56;6.35;;;1.50;;
21987;SDS011;11158;53.404;-1.510;2023-01-09T12:50:50;7.20;;;1.25;;
21987;SDS011;11158;53.404;-1.510;2023-01-09T12:53:25;5.75;;;1.10;;
21987;SDS011;11158;53.404;-1.510;2023-01-09T12:55:59;8.10;;;1.52;;
21987;SDS011;11158;53.404;-1.510;2023-01-09T12:58:58;7.50;;;1.50;;
21987;SDS011;11158;53.404;-1.510;2023-01-09T13:01:28;8.25;;;1.70;;
21987;SDS011;11158;53.404;-1.510;2023-01-09T13:07:01;10.23;;;1.95;;
21987;SDS011;11158;53.404;-1.510;2023-01-09T13:12:52;10.77;;;2.45;;
21987;SDS011;11158;53.404;-1.510;2023-01-09T13:17:52;13.68;;;3.20;;
21987;SDS011;11158;53.404;-1.510;2023-01-09T13:20:31;8.25;;;1.85;;
21987;SDS011;11158;53.404;-1.510;2023-01-09T13:23:03;10.20;;;2.03;;
21987;SDS011;11158;53.404;-1.510;2023-01-09T13:28:00;6.93;;;1.52;;
21987;SDS011;11158;53.404;-1.510;2023-01-09T13:36:02;10.40;;;2.03;;
21987;SDS011;11158;53.404;-1.510;2023-01-09T13:38:28;9.25;;;1.98;;
21987;SDS011;11158;53.404;-1.510;2023-01-09T13:41:12;12.85;;;2.20;;
21987;SDS011;11158;53.404;-1.510;2023-01-09T13:44:20;10.88;;;2.65;;
21987;SDS011;11158;53.404;-1.510;2023-01-09T13:46:45;8.65;;;2.20;;
21987;SDS011;11158;53.404;-1.510;2023-01-09T13:57:29;15.18;;;2.65;;
21987;SDS011;11158;53.404;-1.510;2023-01-09T14:05:02;13.80;;;2.40;;
21987;SDS011;11158;53.404;-1.510;2023-01-09T14:07:49;12.32;;;3.75;;
21987;SDS011;11158;53.404;-1.510;2023-01-09T14:10:36;5.72;;;1.55;;
21987;SDS011;11158;53.404;-1.510;2023-01-09T14:13:19;14.20;;;2.30;;
21987;SDS011;11158;53.404;-1.510;2023-01-09T14:15:48;13.82;;;2.63;;
21987;SDS011;11158;53.404;-1.510;2023-01-09T14:18:17;7.20;;;1.92;;
21987;SDS011;11158;53.404;-1.510;2023-01-09T14:23:28;10.02;;;1.80;;
21987;SDS011;11158;53.404;-1.510;2023-01-09T14:25:58;11.15;;;1.80;;
21987;SDS011;11158;53.404;-1.510;2023-01-09T14:28:24;11.88;;;2.10;;
21987;SDS011;11158;53.404;-1.510;2023-01-09T14:35:45;14.93;;;2.10;;
21987;SDS011;11158;53.404;-1.510;2023-01-09T14:38:32;13.00;;;3.08;;
21987;SDS011;11158;53.404;-1.510;2023-01-09T14:44:29;15.32;;;2.22;;
21987;SDS011;11158;53.404;-1.510;2023-01-09T14:46:58;11.18;;;2.15;;
21987;SDS011;11158;53.404;-1.510;2023-01-09T14:49:34;10.18;;;2.17;;
21987;SDS011;11158;53.404;-1.510;2023-01-09T14:52:12;13.13;;;2.60;;
21987;SDS011;11158;53.404;-1.510;2023-01-09T14:54:46;10.30;;;2.50;;
21987;SDS011;11158;53.404;-1.510;2023-01-09T14:57:27;8.50;;;2.35;;
21987;SDS011;11158;53.404;-1.510;2023-01-09T14:59:56;9.65;;;2.45;;
21987;SDS011;11158;53.404;-1.510;2023-01-09T15:02:34;10.23;;;1.80;;
21987;SDS011;11158;53.404;-1.510;2023-01-09T15:05:03;10.70;;;2.33;;
21987;SDS011;11158;53.404;-1.510;2023-01-09T15:07:34;14.35;;;3.15;;
21987;SDS011;11158;53.404;-1.510;2023-01-09T15:10:13;12.32;;;2.90;;
21987;SDS011;11158;53.404;-1.510;2023-01-09T15:12:40;10.23;;;2.60;;
21987;SDS011;11158;53.404;-1.510;2023-01-09T15:15:09;12.52;;;2.75;;
21987;SDS011;11158;53.404;-1.510;2023-01-09T15:17:38;15.48;;;3.53;;
21987;SDS011;11158;53.404;-1.510;2023-01-09T15:20:14;14.05;;;3.13;;
21987;SDS011;11158;53.404;-1.510;2023-01-09T15:22:48;15.20;;;3.70;;
21987;SDS011;11158;53.404;-1.510;2023-01-09T15:27:55;11.88;;;1.98;;
21987;SDS011;11158;53.404;-1.510;2023-01-09T15:32:59;11.38;;;2.45;;
21987;SDS011;11158;53.404;-1.510;2023-01-09T15:35:28;12.43;;;2.83;;
21987;SDS011;11158;53.404;-1.510;2023-01-09T15:37:54;11.02;;;2.63;;
21987;SDS011;11158;53.404;-1.510;2023-01-09T15:40:22;14.65;;;2.78;;
21987;SDS011;11158;53.404;-1.510;2023-01-09T15:42:56;10.23;;;2.17;;
21987;SDS011;11158;53.404;-1.510;2023-01-09T15:45:27;12.52;;;2.40;;
21987;SDS011;11158;53.404;-1.510;2023-01-09T15:48:13;8.40;;;2.00;;
21987;SDS011;11158;53.404;-1.510;2023-01-09T15:50:42;13.52;;;2.78;;
21987;SDS011;11158;53.404;-1.510;2023-01-09T15:53:12;9.43;;;2.17;;
21987;SDS011;11158;53.404;-1.510;2023-01-09T15:55:40;20.55;;;3.08;;
21987;SDS011;11158;53.404;-1.510;2023-01-09T15:58:26;10.48;;;2.70;;
21987;SDS011;11158;53.404;-1.510;2023-01-09T16:00:54;11.32;;;2.05;;
21987;SDS011;11158;53.404;-1.510;2023-01-09T16:03:23;12.43;;;3.17;;
21987;SDS011;11158;53.404;-1.510;2023-01-09T16:05:51;9.38;;;2.42;;
21987;SDS011;11158;53.404;-1.510;2023-01-09T16:08:23;9.18;;;2.60;;
21987;SDS011;11158;53.404;-1.510;2023-01-09T16:10:52;10.85;;;2.95;;
21987;SDS011;11158;53.404;-1.510;2023-01-09T16:13:21;9.48;;;2.45;;
21987;SDS011;11158;53.404;-1.510;2023-01-09T16:15:49;13.93;;;3.22;;
21987;SDS011;11158;53.404;-1.510;2023-01-09T16:18:18;12.52;;;2.88;;
21987;SDS011;11158;53.404;-1.510;2023-01-09T16:20:47;7.70;;;2.80;;
21987;SDS011;11158;53.404;-1.510;2023-01-09T16:25:47;6.53;;;2.67;;
21987;SDS011;11158;53.404;-1.510;2023-01-09T16:30:51;13.75;;;2.75;;
21987;SDS011;11158;53.404;-1.510;2023-01-09T16:33:21;14.60;;;2.78;;
21987;SDS011;11158;53.404;-1.510;2023-01-09T16:35:49;9.15;;;3.05;;
21987;SDS011;11158;53.404;-1.510;2023-01-09T16:38:16;12.13;;;2.80;;
21987;SDS011;11158;53.404;-1.510;2023-01-09T16:43:45;12.98;;;2.70;;
21987;SDS011;11158;53.404;-1.510;2023-01-09T16:46:12;8.00;;;2.53;;
21987;SDS011;11158;53.404;-1.510;2023-01-09T16:48:39;11.52;;;2.70;;
21987;SDS011;11158;53.404;-1.510;2023-01-09T16:51:05;7.75;;;2.45;;
21987;SDS011;11158;53.404;-1.510;2023-01-09T16:56:03;10.02;;;2.40;;
21987;SDS011;11158;53.404;-1.510;2023-01-09T16:58:30;7.22;;;2.30;;
21987;SDS011;11158;53.404;-1.510;2023-01-09T17:00:57;6.95;;;1.63;;
21987;SDS011;11158;53.404;-1.510;2023-01-09T17:03:23;6.40;;;1.90;;
21987;SDS011;11158;53.404;-1.510;2023-01-09T17:05:56;11.10;;;1.98;;
21987;SDS011;11158;53.404;-1.510;2023-01-09T17:08:25;11.07;;;2.10;;
21987;SDS011;11158;53.404;-1.510;2023-01-09T17:10:57;10.05;;;2.28;;
21987;SDS011;11158;53.404;-1.510;2023-01-09T17:13:24;12.77;;;2.90;;
21987;SDS011;11158;53.404;-1.510;2023-01-09T17:15:54;16.08;;;2.85;;
21987;SDS011;11158;53.404;-1.510;2023-01-09T17:18:21;11.82;;;2.25;;
21987;SDS011;11158;53.404;-1.510;2023-01-09T17:20:50;10.25;;;3.45;;
21987;SDS011;11158;53.404;-1.510;2023-01-09T17:23:18;18.15;;;3.97;;
21987;SDS011;11158;53.404;-1.510;2023-01-09T17:25:50;13.02;;;3.85;;